This is the latest recevied weather packets stored in our database for station/object IT9RID. If no packets are shown the sender has not sent any weather packets the latest 10 day(s).
| Time | Temp. | Humidity | Pressure | Rain* | Wind** | Luminosity | Snow |
|---|---|---|---|---|---|---|---|
| 1787655988 | 35° C | 55% | 1012.8 hPa | 0 mm | - | - | - |
| 1787655389 | 36.11° C | 52% | 1012.9 hPa | 0 mm | - | - | - |
| 1787654788 | 36.67° C | 50% | 1012.6 hPa | 0 mm | - | - | - |
| 1787654188 | 37.78° C | 45% | 1012.6 hPa | 0 mm | - | - | - |
| 1787653587 | 37.78° C | 42% | 1012.6 hPa | 0 mm | - | - | - |
| 1787652987 | 36.67° C | 45% | 1012.5 hPa | 0 mm | - | - | - |
| 1787652387 | 36.67° C | 44% | 1012.5 hPa | 0 mm | - | - | - |
| 1787651787 | 36.11° C | 46% | 1012.6 hPa | 0 mm | - | - | - |
| 1787651187 | 35.56° C | 46% | 1012.6 hPa | 0 mm | - | - | - |
| 1787650587 | 35° C | 47% | 1012.8 hPa | 0 mm | - | - | - |
| 1787649987 | 35° C | 45% | 1012.9 hPa | 0 mm | - | - | - |
| 1787649386 | 35° C | 46% | 1013.2 hPa | 0 mm | - | - | - |
| 1787648786 | 33.89° C | 46% | 1013.6 hPa | 0 mm | - | - | - |
| 1787648186 | 34.44° C | 46% | 1013.6 hPa | 0 mm | - | - | - |
| 1787647586 | 34.44° C | 47% | 1013.5 hPa | 0 mm | - | - | - |
| 1787646986 | 33.89° C | 48% | 1013.5 hPa | 0 mm | - | - | - |
| 1787646386 | 32.78° C | 52% | 1013.5 hPa | 0 mm | - | - | - |
| 1787645785 | 31.67° C | 57% | 1013.5 hPa | 0 mm | - | - | - |
| 1787645185 | 31.67° C | 56% | 1013.4 hPa | 0 mm | - | - | - |
| 1787644585 | 32.22° C | 54% | 1013.4 hPa | 0 mm | - | - | - |
| 1787643985 | 31.67° C | 56% | 1013.4 hPa | 0 mm | - | - | - |
| 1787643386 | 30.56° C | 57% | 1013.6 hPa | 0 mm | - | - | - |
| 1787642186 | 30° C | 59% | 1013.6 hPa | 0 mm | - | - | - |
| 1787641584 | 29.44° C | 59% | 1014 hPa | 0 mm | - | - | - |
| 1787640984 | 30° C | 60% | 1014.3 hPa | 0 mm | - | - | - |
* Rain latest hour (hover to see other rain measurements)
** Current wind speed in m/s (hover to see current wind gust speed)